sensor_id;sensor_type;location;lat;lon;timestamp;pressure;altitude;pressure_sealevel;temperature;humidity
10712;BME280;5407;51.234;6.804;2023-03-24T00:02:08;99646.47;;;24.52;42.72
10712;BME280;5407;51.234;6.804;2023-03-24T00:04:35;99638.19;;;24.52;42.59
10712;BME280;5407;51.234;6.804;2023-03-24T00:07:07;99633.91;;;24.51;42.61
10712;BME280;5407;51.234;6.804;2023-03-24T00:09:39;99633.91;;;24.51;42.52
10712;BME280;5407;51.234;6.804;2023-03-24T00:12:07;99631.44;;;24.53;42.54
10712;BME280;5407;51.234;6.804;2023-03-24T00:14:35;99629.91;;;24.52;42.77
10712;BME280;5407;51.234;6.804;2023-03-24T00:17:05;99625.63;;;24.51;42.58
10712;BME280;5407;51.234;6.804;2023-03-24T00:19:34;99617.34;;;24.51;42.63
10712;BME280;5407;51.234;6.804;2023-03-24T00:22:03;99612.59;;;24.52;42.59
10712;BME280;5407;51.234;6.804;2023-03-24T00:24:30;99598.34;;;24.53;42.52
10712;BME280;5407;51.234;6.804;2023-03-24T00:26:57;99594.06;;;24.52;42.72
10712;BME280;5407;51.234;6.804;2023-03-24T00:29:25;99593.28;;;24.52;42.63
10712;BME280;5407;51.234;6.804;2023-03-24T00:31:53;99584.28;;;24.51;42.88
10712;BME280;5407;51.234;6.804;2023-03-24T00:34:21;99583.03;;;24.52;42.77
10712;BME280;5407;51.234;6.804;2023-03-24T00:36:49;99579.50;;;24.52;42.69
10712;BME280;5407;51.234;6.804;2023-03-24T00:39:17;99571.22;;;24.52;42.54
10712;BME280;5407;51.234;6.804;2023-03-24T00:41:45;99565.72;;;24.52;42.45
10712;BME280;5407;51.234;6.804;2023-03-24T00:44:13;99570.78;;;24.53;42.59
10712;BME280;5407;51.234;6.804;2023-03-24T00:46:43;99541.69;;;24.52;42.75
10712;BME280;5407;51.234;6.804;2023-03-24T00:49:11;99552.72;;;24.52;42.72
10712;BME280;5407;51.234;6.804;2023-03-24T00:51:42;99547.66;;;24.51;42.51
10712;BME280;5407;51.234;6.804;2023-03-24T00:54:11;99540.16;;;24.51;42.50
10712;BME280;5407;51.234;6.804;2023-03-24T00:56:39;99551.19;;;24.51;42.49
10712;BME280;5407;51.234;6.804;2023-03-24T00:59:08;99546.41;;;24.52;42.55
10712;BME280;5407;51.234;6.804;2023-03-24T01:01:35;99540.16;;;24.51;42.58
10712;BME280;5407;51.234;6.804;2023-03-24T01:04:04;99544.88;;;24.51;42.45
10712;BME280;5407;51.234;6.804;2023-03-24T01:06:31;99529.88;;;24.52;42.75
10712;BME280;5407;51.234;6.804;2023-03-24T01:09:03;99534.63;;;24.51;42.63
10712;BME280;5407;51.234;6.804;2023-03-24T01:11:34;99527.59;;;24.50;42.57
10712;BME280;5407;51.234;6.804;2023-03-24T01:14:02;99555.91;;;24.51;42.75
10712;BME280;5407;51.234;6.804;2023-03-24T01:16:29;99545.66;;;24.51;43.06
10712;BME280;5407;51.234;6.804;2023-03-24T01:18:56;99551.94;;;24.52;42.66
10712;BME280;5407;51.234;6.804;2023-03-24T01:21:23;99541.38;;;24.50;42.80
10712;BME280;5407;51.234;6.804;2023-03-24T01:23:50;99523.59;;;24.51;42.75
10712;BME280;5407;51.234;6.804;2023-03-24T01:26:19;99525.13;;;24.52;42.65
10712;BME280;5407;51.234;6.804;2023-03-24T01:28:46;99530.66;;;24.52;42.56
10712;BME280;5407;51.234;6.804;2023-03-24T01:31:13;99516.56;;;24.50;42.70
10712;BME280;5407;51.234;6.804;2023-03-24T01:33:40;99506.72;;;24.49;42.71
10712;BME280;5407;51.234;6.804;2023-03-24T01:36:08;99507.06;;;24.51;42.87
10712;BME280;5407;51.234;6.804;2023-03-24T01:38:35;99494.50;;;24.50;42.67
10712;BME280;5407;51.234;6.804;2023-03-24T01:41:04;99488.22;;;24.50;42.93
10712;BME280;5407;51.234;6.804;2023-03-24T01:43:34;99472.44;;;24.50;42.96
10712;BME280;5407;51.234;6.804;2023-03-24T01:46:07;99481.13;;;24.49;42.86
10712;BME280;5407;51.234;6.804;2023-03-24T01:48:39;99480.38;;;24.48;42.88
10712;BME280;5407;51.234;6.804;2023-03-24T01:51:09;99476.41;;;24.49;42.91
10712;BME280;5407;51.234;6.804;2023-03-24T01:53:40;99470.59;;;24.47;42.92
10712;BME280;5407;51.234;6.804;2023-03-24T01:56:09;99463.84;;;24.48;42.95
10712;BME280;5407;51.234;6.804;2023-03-24T01:58:45;99450.50;;;24.47;42.80
10712;BME280;5407;51.234;6.804;2023-03-24T02:01:29;99451.28;;;24.47;43.16
10712;BME280;5407;51.234;6.804;2023-03-24T02:04:37;99431.22;;;24.47;43.01
10712;BME280;5407;51.234;6.804;2023-03-24T02:07:11;99439.78;;;24.49;43.16
10712;BME280;5407;51.234;6.804;2023-03-24T02:09:39;99424.47;;;24.48;43.17
10712;BME280;5407;51.234;6.804;2023-03-24T02:12:06;99426.00;;;24.49;43.08
10712;BME280;5407;51.234;6.804;2023-03-24T02:14:35;99418.22;;;24.47;43.11
10712;BME280;5407;51.234;6.804;2023-03-24T02:17:23;99409.47;;;24.49;43.54
10712;BME280;5407;51.234;6.804;2023-03-24T02:20:29;99401.50;;;24.51;43.37
10712;BME280;5407;51.234;6.804;2023-03-24T02:29:52;99396.78;;;24.51;43.28
10712;BME280;5407;51.234;6.804;2023-03-24T02:32:45;99406.28;;;24.50;43.48
10712;BME280;5407;51.234;6.804;2023-03-24T02:35:59;99400.75;;;24.50;43.34
10712;BME280;5407;51.234;6.804;2023-03-24T02:39:16;99391.25;;;24.51;43.51
10712;BME280;5407;51.234;6.804;2023-03-24T02:41:52;99394.47;;;24.50;43.58
10712;BME280;5407;51.234;6.804;2023-03-24T02:44:25;99394.47;;;24.50;43.53
10712;BME280;5407;51.234;6.804;2023-03-24T02:47:01;99393.69;;;24.49;43.33
10712;BME280;5407;51.234;6.804;2023-03-24T02:49:34;99393.69;;;24.49;43.33
10712;BME280;5407;51.234;6.804;2023-03-24T02:52:10;99382.66;;;24.49;43.41
10712;BME280;5407;51.234;6.804;2023-03-24T02:54:47;99385.41;;;24.49;43.33
10712;BME280;5407;51.234;6.804;2023-03-24T02:57:20;99385.41;;;24.49;43.25
10712;BME280;5407;51.234;6.804;2023-03-24T03:00:13;99382.66;;;24.49;43.11
10712;BME280;5407;51.234;6.804;2023-03-24T03:03:06;99378.72;;;24.50;43.29
10712;BME280;5407;51.234;6.804;2023-03-24T03:05:38;99376.38;;;24.49;43.25
10712;BME280;5407;51.234;6.804;2023-03-24T03:08:09;99375.94;;;24.50;43.29
10712;BME280;5407;51.234;6.804;2023-03-24T03:10:41;99378.38;;;24.48;43.30
10712;BME280;5407;51.234;6.804;2023-03-24T03:13:13;99378.72;;;24.50;42.81
10712;BME280;5407;51.234;6.804;2023-03-24T03:15:44;99382.66;;;24.49;43.21
10712;BME280;5407;51.234;6.804;2023-03-24T03:18:15;99377.16;;;24.49;42.92
10712;BME280;5407;51.234;6.804;2023-03-24T03:20:49;99375.94;;;24.50;43.13
10712;BME280;5407;51.234;6.804;2023-03-24T03:23:20;99370.72;;;24.52;43.12
10712;BME280;5407;51.234;6.804;2023-03-24T03:25:54;99366.44;;;24.51;43.04
10712;BME280;5407;51.234;6.804;2023-03-24T03:28:24;99369.97;;;24.52;43.20
10712;BME280;5407;51.234;6.804;2023-03-24T03:30:56;99371.97;;;24.51;43.05
10712;BME280;5407;51.234;6.804;2023-03-24T03:33:36;99369.22;;;24.51;43.06
10712;BME280;5407;51.234;6.804;2023-03-24T03:36:08;99373.19;;;24.50;42.78
10712;BME280;5407;51.234;6.804;2023-03-24T03:38:44;99367.34;;;24.48;43.20
10712;BME280;5407;51.234;6.804;2023-03-24T03:41:15;99359.81;;;24.49;42.87
10712;BME280;5407;51.234;6.804;2023-03-24T03:43:44;99372.88;;;24.48;42.79
10712;BME280;5407;51.234;6.804;2023-03-24T03:46:12;99365.81;;;24.47;42.71
10712;BME280;5407;51.234;6.804;2023-03-24T03:48:39;99361.53;;;24.46;42.79
10712;BME280;5407;51.234;6.804;2023-03-24T03:51:07;99363.81;;;24.48;42.81
10712;BME280;5407;51.234;6.804;2023-03-24T03:53:39;99353.28;;;24.46;43.04
10712;BME280;5407;51.234;6.804;2023-03-24T03:56:09;99367.06;;;24.46;42.94
10712;BME280;5407;51.234;6.804;2023-03-24T03:58:45;99364.31;;;24.46;42.90
10712;BME280;5407;51.234;6.804;2023-03-24T04:01:16;99378.84;;;24.47;42.88
10712;BME280;5407;51.234;6.804;2023-03-24T04:07:36;99373.31;;;24.47;42.98
10712;BME280;5407;51.234;6.804;2023-03-24T04:10:56;99378.09;;;24.46;42.86
10712;BME280;5407;51.234;6.804;2023-03-24T04:13:32;99395.84;;;24.45;42.79
10712;BME280;5407;51.234;6.804;2023-03-24T04:16:40;99387.59;;;24.45;42.90
10712;BME280;5407;51.234;6.804;2023-03-24T04:19:25;99399.53;;;24.42;42.68
10712;BME280;5407;51.234;6.804;2023-03-24T04:22:03;99405.34;;;24.44;42.74
10712;BME280;5407;51.234;6.804;2023-03-24T04:24:42;99435.38;;;24.42;42.85
10712;BME280;5407;51.234;6.804;2023-03-24T04:27:22;99427.09;;;24.42;42.90
10712;BME280;5407;51.234;6.804;2023-03-24T04:30:00;99438.13;;;24.42;42.86
10712;BME280;5407;51.234;6.804;2023-03-24T04:32:37;99431.09;;;24.41;43.16
10712;BME280;5407;51.234;6.804;2023-03-24T04:35:11;99440.59;;;24.40;43.00
10712;BME280;5407;51.234;6.804;2023-03-24T04:38:08;99448.09;;;24.40;43.18
10712;BME280;5407;51.234;6.804;2023-03-24T04:40:39;99461.13;;;24.39;43.39
10712;BME280;5407;51.234;6.804;2023-03-24T04:43:09;99457.88;;;24.41;43.28
10712;BME280;5407;51.234;6.804;2023-03-24T04:45:39;99468.16;;;24.40;43.35
10712;BME280;5407;51.234;6.804;2023-03-24T04:48:26;99479.19;;;24.40;43.22
10712;BME280;5407;51.234;6.804;2023-03-24T04:51:31;99474.91;;;24.39;43.27
10712;BME280;5407;51.234;6.804;2023-03-24T04:54:19;99479.19;;;24.40;43.35
10712;BME280;5407;51.234;6.804;2023-03-24T04:56:51;99490.66;;;24.39;43.25
10712;BME280;5407;51.234;6.804;2023-03-24T04:59:27;99498.94;;;24.39;43.43
10712;BME280;5407;51.234;6.804;2023-03-24T05:01:55;99496.66;;;24.37;43.23
10712;BME280;5407;51.234;6.804;2023-03-24T05:04:30;99497.41;;;24.38;43.12
10712;BME280;5407;51.234;6.804;2023-03-24T05:07:08;99518.72;;;24.37;43.14
10712;BME280;5407;51.234;6.804;2023-03-24T05:09:36;99511.66;;;24.36;43.26
10712;BME280;5407;51.234;6.804;2023-03-24T05:12:02;99530.19;;;24.36;43.24
10712;BME280;5407;51.234;6.804;2023-03-24T05:14:41;99533.72;;;24.36;43.24
10712;BME280;5407;51.234;6.804;2023-03-24T05:17:07;99547.16;;;24.34;43.15
10712;BME280;5407;51.234;6.804;2023-03-24T05:19:36;99548.69;;;24.35;43.12
10712;BME280;5407;51.234;6.804;2023-03-24T05:22:02;99554.69;;;24.34;43.25
10712;BME280;5407;51.234;6.804;2023-03-24T05:24:29;99566.47;;;24.34;43.33
10712;BME280;5407;51.234;6.804;2023-03-24T05:26:57;99570.44;;;24.33;42.99
10712;BME280;5407;51.234;6.804;2023-03-24T05:29:23;99573.19;;;24.33;43.24
10712;BME280;5407;51.234;6.804;2023-03-24T05:31:50;99574.72;;;24.34;42.97
10712;BME280;5407;51.234;6.804;2023-03-24T05:34:20;99584.22;;;24.33;43.15
10712;BME280;5407;51.234;6.804;2023-03-24T05:37:10;99589.00;;;24.33;42.87
10712;BME280;5407;51.234;6.804;2023-03-24T05:39:39;99598.50;;;24.32;42.94
10712;BME280;5407;51.234;6.804;2023-03-24T05:42:23;99615.78;;;24.32;42.83
10712;BME280;5407;51.234;6.804;2023-03-24T05:44:49;99622.06;;;24.33;42.64
10712;BME280;5407;51.234;6.804;2023-03-24T05:47:24;99619.75;;;24.31;42.72
10712;BME280;5407;51.234;6.804;2023-03-24T05:49:52;99630.78;;;24.31;42.82
10712;BME280;5407;51.234;6.804;2023-03-24T05:52:20;99639.34;;;24.33;42.75
10712;BME280;5407;51.234;6.804;2023-03-24T05:54:49;99654.38;;;24.32;42.54
10712;BME280;5407;51.234;6.804;2023-03-24T05:57:25;99650.38;;;24.33;42.56
10712;BME280;5407;51.234;6.804;2023-03-24T06:00:20;99664.16;;;24.33;42.50
10712;BME280;5407;51.234;6.804;2023-03-24T06:02:58;99658.66;;;24.33;42.35
10712;BME280;5407;51.234;6.804;2023-03-24T06:05:37;99668.47;;;24.34;42.50
10712;BME280;5407;51.234;6.804;2023-03-24T06:08:06;99675.50;;;24.35;42.54
10712;BME280;5407;51.234;6.804;2023-03-24T06:10:36;99674.75;;;24.35;42.50
10712;BME280;5407;51.234;6.804;2023-03-24T06:13:03;99681.00;;;24.35;42.13
10712;BME280;5407;51.234;6.804;2023-03-24T06:15:34;99688.09;;;24.36;42.28
10712;BME280;5407;51.234;6.804;2023-03-24T06:18:29;99688.41;;;24.38;42.36
10712;BME280;5407;51.234;6.804;2023-03-24T06:21:01;99695.88;;;24.38;42.42
10712;BME280;5407;51.234;6.804;2023-03-24T06:23:31;99706.16;;;24.37;42.13
10712;BME280;5407;51.234;6.804;2023-03-24T06:26:11;99706.16;;;24.37;42.28
10712;BME280;5407;51.234;6.804;2023-03-24T06:28:51;99707.69;;;24.38;42.28
10712;BME280;5407;51.234;6.804;2023-03-24T06:31:20;99703.41;;;24.37;42.29
10712;BME280;5407;51.234;6.804;2023-03-24T06:33:50;99709.22;;;24.39;42.11
10712;BME280;5407;51.234;6.804;2023-03-24T06:36:18;99711.69;;;24.37;42.11
10712;BME280;5407;51.234;6.804;2023-03-24T06:38:46;99718.72;;;24.38;41.97
10712;BME280;5407;51.234;6.804;2023-03-24T06:41:17;99726.69;;;24.36;41.88
10712;BME280;5407;51.234;6.804;2023-03-24T06:43:46;99721.94;;;24.37;41.80
10712;BME280;5407;51.234;6.804;2023-03-24T06:46:13;99725.47;;;24.37;41.95
10712;BME280;5407;51.234;6.804;2023-03-24T06:48:43;99719.59;;;24.35;41.88
10712;BME280;5407;51.234;6.804;2023-03-24T06:51:11;99722.38;;;24.35;41.88
10712;BME280;5407;51.234;6.804;2023-03-24T06:53:39;99721.19;;;24.36;42.15
10712;BME280;5407;51.234;6.804;2023-03-24T06:56:11;99722.84;;;24.34;42.09
10712;BME280;5407;51.234;6.804;2023-03-24T06:58:44;99734.63;;;24.34;41.81
10712;BME280;5407;51.234;6.804;2023-03-24T07:01:18;99721.63;;;24.35;41.94
10712;BME280;5407;51.234;6.804;2023-03-24T07:04:08;99719.59;;;24.35;41.78
10712;BME280;5407;51.234;6.804;2023-03-24T07:06:38;99734.63;;;24.34;41.71
10712;BME280;5407;51.234;6.804;2023-03-24T07:09:12;99746.44;;;24.35;41.90
10712;BME280;5407;51.234;6.804;2023-03-24T07:11:40;99739.38;;;24.34;41.89
10712;BME280;5407;51.234;6.804;2023-03-24T07:14:07;99731.56;;;24.32;41.77
10712;BME280;5407;51.234;6.804;2023-03-24T07:16:35;99745.34;;;24.32;41.94
10712;BME280;5407;51.234;6.804;2023-03-24T07:19:28;99741.03;;;24.31;41.58
10712;BME280;5407;51.234;6.804;2023-03-24T07:22:16;99745.03;;;24.30;41.88
10712;BME280;5407;51.234;6.804;2023-03-24T07:25:04;99734.00;;;24.30;41.75
10712;BME280;5407;51.234;6.804;2023-03-24T07:27:53;99744.59;;;24.32;41.68
10712;BME280;5407;51.234;6.804;2023-03-24T07:30:22;99745.81;;;24.31;41.81
10712;BME280;5407;51.234;6.804;2023-03-24T07:32:49;99750.84;;;24.32;41.83
10712;BME280;5407;51.234;6.804;2023-03-24T07:35:16;99733.09;;;24.33;41.45
10712;BME280;5407;51.234;6.804;2023-03-24T07:37:43;99738.59;;;24.33;41.57
10712;BME280;5407;51.234;6.804;2023-03-24T07:40:12;99737.06;;;24.32;41.66
10712;BME280;5407;51.234;6.804;2023-03-24T07:42:41;99739.38;;;24.34;41.55
10712;BME280;5407;51.234;6.804;2023-03-24T07:45:28;99740.13;;;24.34;41.55
10712;BME280;5407;51.234;6.804;2023-03-24T07:47:56;99741.34;;;24.33;41.55
10712;BME280;5407;51.234;6.804;2023-03-24T07:50:29;99750.72;;;24.36;41.73
10712;BME280;5407;51.234;6.804;2023-03-24T07:52:57;99754.25;;;24.36;41.82
10712;BME280;5407;51.234;6.804;2023-03-24T07:55:23;99758.19;;;24.35;41.68
10712;BME280;5407;51.234;6.804;2023-03-24T07:58:06;99773.84;;;24.38;41.53
10712;BME280;5407;51.234;6.804;2023-03-24T08:00:36;99772.31;;;24.37;41.80
10712;BME280;5407;51.234;6.804;2023-03-24T08:03:13;99784.88;;;24.38;41.38
10712;BME280;5407;51.234;6.804;2023-03-24T08:06:03;99783.34;;;24.37;41.41
10712;BME280;5407;51.234;6.804;2023-03-24T08:08:37;99795.13;;;24.38;41.35
10712;BME280;5407;51.234;6.804;2023-03-24T08:11:05;99794.38;;;24.37;41.46
10712;BME280;5407;51.234;6.804;2023-03-24T08:13:32;99798.69;;;24.38;41.40
10712;BME280;5407;51.234;6.804;2023-03-24T08:16:00;99798.69;;;24.38;41.49
10712;BME280;5407;51.234;6.804;2023-03-24T08:18:28;99788.41;;;24.39;41.64
10712;BME280;5407;51.234;6.804;2023-03-24T08:20:57;99798.19;;;24.40;41.51
10712;BME280;5407;51.234;6.804;2023-03-24T08:23:26;99789.50;;;24.41;41.52
10712;BME280;5407;51.234;6.804;2023-03-24T08:25:53;99793.78;;;24.42;41.31
10712;BME280;5407;51.234;6.804;2023-03-24T08:28:19;99788.25;;;24.42;41.19
10712;BME280;5407;51.234;6.804;2023-03-24T08:30:46;99785.50;;;24.42;41.14
10712;BME280;5407;51.234;6.804;2023-03-24T08:33:15;99788.56;;;24.44;41.13
10712;BME280;5407;51.234;6.804;2023-03-24T08:35:42;99786.56;;;24.45;41.19
10712;BME280;5407;51.234;6.804;2023-03-24T08:38:11;99795.63;;;24.45;41.15
10712;BME280;5407;51.234;6.804;2023-03-24T08:40:40;99787.34;;;24.45;41.04
10712;BME280;5407;51.234;6.804;2023-03-24T08:43:11;99785.34;;;24.46;41.27
10712;BME280;5407;51.234;6.804;2023-03-24T08:45:39;99788.56;;;24.44;40.96
10712;BME280;5407;51.234;6.804;2023-03-24T08:48:07;99796.38;;;24.46;41.26
10712;BME280;5407;51.234;6.804;2023-03-24T08:50:38;99795.63;;;24.45;41.10
10712;BME280;5407;51.234;6.804;2023-03-24T08:53:05;99810.63;;;24.44;41.38
10712;BME280;5407;51.234;6.804;2023-03-24T08:55:32;99800.84;;;24.43;41.44
10712;BME280;5407;51.234;6.804;2023-03-24T08:58:01;99799.28;;;24.42;40.98
10712;BME280;5407;51.234;6.804;2023-03-24T09:00:28;99799.28;;;24.42;41.38
10712;BME280;5407;51.234;6.804;2023-03-24T09:02:55;99807.56;;;24.42;41.37
10712;BME280;5407;51.234;6.804;2023-03-24T09:05:23;99811.53;;;24.41;41.39
10712;BME280;5407;51.234;6.804;2023-03-24T09:07:53;99806.03;;;24.41;41.25
10712;BME280;5407;51.234;6.804;2023-03-24T09:10:20;99811.53;;;24.41;41.52
10712;BME280;5407;51.234;6.804;2023-03-24T09:12:48;99810.75;;;24.41;41.21
10712;BME280;5407;51.234;6.804;2023-03-24T09:15:15;99817.06;;;24.41;41.05
10712;BME280;5407;51.234;6.804;2023-03-24T09:17:42;99816.28;;;24.41;41.06
10712;BME280;5407;51.234;6.804;2023-03-24T09:20:12;99814.00;;;24.39;41.17
10712;BME280;5407;51.234;6.804;2023-03-24T09:22:39;99820.25;;;24.40;41.36
10712;BME280;5407;51.234;6.804;2023-03-24T09:25:10;99817.97;;;24.38;41.09
10712;BME280;5407;51.234;6.804;2023-03-24T09:27:37;99829.13;;;24.35;38.83
10712;BME280;5407;51.234;6.804;2023-03-24T09:30:05;99817.88;;;24.20;38.18
10712;BME280;5407;51.234;6.804;2023-03-24T09:32:34;99817.84;;;24.11;37.10
10712;BME280;5407;51.234;6.804;2023-03-24T09:35:01;99827.75;;;24.00;36.62
10712;BME280;5407;51.234;6.804;2023-03-24T09:37:28;99825.13;;;23.96;36.53
10712;BME280;5407;51.234;6.804;2023-03-24T09:39:55;99819.47;;;24.00;36.65
10712;BME280;5407;51.234;6.804;2023-03-24T09:42:27;99831.41;;;23.97;36.31
10712;BME280;5407;51.234;6.804;2023-03-24T09:44:57;99825.22;;;23.84;37.03
10712;BME280;5407;51.234;6.804;2023-03-24T09:47:27;99843.50;;;23.78;36.54
10712;BME280;5407;51.234;6.804;2023-03-24T09:49:58;99839.50;;;23.70;36.29
10712;BME280;5407;51.234;6.804;2023-03-24T09:52:29;99842.63;;;23.60;36.59
10712;BME280;5407;51.234;6.804;2023-03-24T09:54:59;99857.59;;;23.59;36.70
10712;BME280;5407;51.234;6.804;2023-03-24T09:57:33;99845.06;;;23.58;36.37
10712;BME280;5407;51.234;6.804;2023-03-24T10:00:11;99850.34;;;23.52;36.04
10712;BME280;5407;51.234;6.804;2023-03-24T10:02:41;99856.31;;;23.51;35.57
10712;BME280;5407;51.234;6.804;2023-03-24T10:05:12;99860.88;;;23.45;35.57
10712;BME280;5407;51.234;6.804;2023-03-24T10:07:44;99872.88;;;23.38;35.81
10712;BME280;5407;51.234;6.804;2023-03-24T10:10:19;99859.88;;;23.39;36.80
10712;BME280;5407;51.234;6.804;2023-03-24T10:12:55;99873.41;;;23.46;37.71
10712;BME280;5407;51.234;6.804;2023-03-24T10:15:29;99868.88;;;23.52;38.01
10712;BME280;5407;51.234;6.804;2023-03-24T10:18:01;99869.84;;;23.58;38.19
10712;BME280;5407;51.234;6.804;2023-03-24T10:20:35;99883.78;;;23.63;38.31
10712;BME280;5407;51.234;6.804;2023-03-24T10:23:14;99877.25;;;23.70;38.33
10712;BME280;5407;51.234;6.804;2023-03-24T10:25:51;99877.00;;;23.76;38.41
10712;BME280;5407;51.234;6.804;2023-03-24T10:28:24;99870.19;;;23.81;38.43
10712;BME280;5407;51.234;6.804;2023-03-24T10:30:54;99865.31;;;23.85;38.58
10712;BME280;5407;51.234;6.804;2023-03-24T10:33:23;99869.47;;;23.89;38.74
10712;BME280;5407;51.234;6.804;2023-03-24T10:35:56;99872.88;;;23.93;38.69
10712;BME280;5407;51.234;6.804;2023-03-24T10:38:26;99875.47;;;23.97;38.76
10712;BME280;5407;51.234;6.804;2023-03-24T10:40:53;99883.16;;;24.02;38.83
10712;BME280;5407;51.234;6.804;2023-03-24T10:43:22;99885.47;;;24.03;38.79
10712;BME280;5407;51.234;6.804;2023-03-24T10:45:53;99887.66;;;24.08;39.00
10712;BME280;5407;51.234;6.804;2023-03-24T10:48:42;99885.53;;;24.12;39.18
10712;BME280;5407;51.234;6.804;2023-03-24T10:51:15;99888.59;;;24.14;39.24
10712;BME280;5407;51.234;6.804;2023-03-24T10:53:43;99890.91;;;24.16;39.01
10712;BME280;5407;51.234;6.804;2023-03-24T10:56:15;99885.72;;;24.18;39.04
10712;BME280;5407;51.234;6.804;2023-03-24T10:58:44;99883.28;;;24.20;39.07
10712;BME280;5407;51.234;6.804;2023-03-24T11:01:24;99880.38;;;24.23;39.30
10712;BME280;5407;51.234;6.804;2023-03-24T11:03:57;99877.94;;;24.25;39.29
10712;BME280;5407;51.234;6.804;2023-03-24T11:06:25;99878.25;;;24.27;39.36
10712;BME280;5407;51.234;6.804;2023-03-24T11:09:07;99870.28;;;24.29;39.38
10712;BME280;5407;51.234;6.804;2023-03-24T11:11:35;99870.28;;;24.29;39.20
10712;BME280;5407;51.234;6.804;2023-03-24T11:14:17;99874.91;;;24.32;39.05
10712;BME280;5407;51.234;6.804;2023-03-24T11:16:45;99874.00;;;24.35;39.35
10712;BME280;5407;51.234;6.804;2023-03-24T11:19:18;99880.72;;;24.34;39.10
10712;BME280;5407;51.234;6.804;2023-03-24T11:21:46;99874.78;;;24.36;39.23
10712;BME280;5407;51.234;6.804;2023-03-24T11:24:15;99877.84;;;24.38;39.21
10712;BME280;5407;51.234;6.804;2023-03-24T11:26:45;99887.22;;;24.40;39.24
10712;BME280;5407;51.234;6.804;2023-03-24T11:29:17;99891.03;;;24.43;39.69
10712;BME280;5407;51.234;6.804;2023-03-24T11:31:50;99886.75;;;24.42;39.41
10712;BME280;5407;51.234;6.804;2023-03-24T11:34:20;99901.31;;;24.42;39.57
10712;BME280;5407;51.234;6.804;2023-03-24T11:36:51;99885.09;;;24.44;39.75
10712;BME280;5407;51.234;6.804;2023-03-24T11:39:21;99894.88;;;24.45;39.63
10712;BME280;5407;51.234;6.804;2023-03-24T11:42:13;99878.97;;;24.49;40.07
10712;BME280;5407;51.234;6.804;2023-03-24T11:44:47;99909.75;;;24.48;39.69
10712;BME280;5407;51.234;6.804;2023-03-24T11:47:22;99893.97;;;24.48;39.73
10712;BME280;5407;51.234;6.804;2023-03-24T11:50:00;99882.94;;;24.48;40.06
10712;BME280;5407;51.234;6.804;2023-03-24T11:52:34;99882.94;;;24.48;39.65
10712;BME280;5407;51.234;6.804;2023-03-24T11:55:12;99878.09;;;24.52;40.50
10712;BME280;5407;51.234;6.804;2023-03-24T11:57:46;99887.44;;;24.55;40.75
10712;BME280;5407;51.234;6.804;2023-03-24T12:00:21;99892.50;;;24.56;40.65
10712;BME280;5407;51.234;6.804;2023-03-24T12:03:15;99881.78;;;24.58;40.85
10712;BME280;5407;51.234;6.804;2023-03-24T12:05:51;99879.03;;;24.58;40.67
10712;BME280;5407;51.234;6.804;2023-03-24T12:08:32;99869.22;;;24.57;40.71
10712;BME280;5407;51.234;6.804;2023-03-24T12:11:07;99877.06;;;24.59;40.60
10712;BME280;5407;51.234;6.804;2023-03-24T12:13:39;99866.78;;;24.59;40.87
10712;BME280;5407;51.234;6.804;2023-03-24T12:16:19;99868.31;;;24.60;40.71
10712;BME280;5407;51.234;6.804;2023-03-24T12:21:56;99864.31;;;24.61;40.54
10712;BME280;5407;51.234;6.804;2023-03-24T12:24:40;99875.34;;;24.61;40.53
10712;BME280;5407;51.234;6.804;2023-03-24T12:27:20;99865.09;;;24.62;40.68
10712;BME280;5407;51.234;6.804;2023-03-24T12:29:57;99861.88;;;24.63;40.43
10712;BME280;5407;51.234;6.804;2023-03-24T12:32:39;99864.63;;;24.63;40.59
10712;BME280;5407;51.234;6.804;2023-03-24T12:35:27;99857.91;;;24.64;40.32
10712;BME280;5407;51.234;6.804;2023-03-24T12:41:02;99842.88;;;24.65;40.39
10712;BME280;5407;51.234;6.804;2023-03-24T12:43:37;99836.94;;;24.67;40.30
10712;BME280;5407;51.234;6.804;2023-03-24T12:46:23;99842.88;;;24.65;40.52
10712;BME280;5407;51.234;6.804;2023-03-24T12:49:09;99833.38;;;24.66;40.52
10712;BME280;5407;51.234;6.804;2023-03-24T12:51:44;99840.13;;;24.65;40.24
10712;BME280;5407;51.234;6.804;2023-03-24T12:54:21;99847.19;;;24.66;40.18
10712;BME280;5407;51.234;6.804;2023-03-24T12:56:54;99847.19;;;24.66;40.22
10712;BME280;5407;51.234;6.804;2023-03-24T12:59:28;99827.88;;;24.66;40.51
10712;BME280;5407;51.234;6.804;2023-03-24T13:02:03;99830.63;;;24.66;40.21
10712;BME280;5407;51.234;6.804;2023-03-24T13:04:38;99839.69;;;24.67;40.21
10712;BME280;5407;51.234;6.804;2023-03-24T13:07:08;99837.69;;;24.67;40.19
10712;BME280;5407;51.234;6.804;2023-03-24T13:09:41;99840.44;;;24.67;40.28
10712;BME280;5407;51.234;6.804;2023-03-24T13:12:14;99838.47;;;24.68;40.09
10712;BME280;5407;51.234;6.804;2023-03-24T13:14:48;99848.28;;;24.69;40.06
10712;BME280;5407;51.234;6.804;2023-03-24T13:17:20;99845.03;;;24.70;40.31
10712;BME280;5407;51.234;6.804;2023-03-24T13:19:50;99845.03;;;24.70;40.40
10712;BME280;5407;51.234;6.804;2023-03-24T13:22:19;99836.31;;;24.72;40.12
10712;BME280;5407;51.234;6.804;2023-03-24T13:24:48;99840.63;;;24.73;40.08
10712;BME280;5407;51.234;6.804;2023-03-24T13:27:20;99841.84;;;24.72;40.06
10712;BME280;5407;51.234;6.804;2023-03-24T13:29:59;99848.09;;;24.72;39.99
10712;BME280;5407;51.234;6.804;2023-03-24T13:32:33;99844.59;;;24.72;39.98
10712;BME280;5407;51.234;6.804;2023-03-24T13:35:09;99841.06;;;24.71;40.10
10712;BME280;5407;51.234;6.804;2023-03-24T13:37:39;99815.00;;;24.72;39.92
10712;BME280;5407;51.234;6.804;2023-03-24T13:40:16;99828.34;;;24.74;39.90
10712;BME280;5407;51.234;6.804;2023-03-24T13:42:46;99819.31;;;24.73;40.14
10712;BME280;5407;51.234;6.804;2023-03-24T13:45:32;99818.38;;;24.76;40.24
10712;BME280;5407;51.234;6.804;2023-03-24T13:48:04;99808.56;;;24.75;40.06
10712;BME280;5407;51.234;6.804;2023-03-24T13:50:35;99805.38;;;24.77;39.96
10712;BME280;5407;51.234;6.804;2023-03-24T13:53:11;99805.38;;;24.77;39.98
10712;BME280;5407;51.234;6.804;2023-03-24T13:55:47;99805.38;;;24.77;40.12
10712;BME280;5407;51.234;6.804;2023-03-24T13:58:19;99813.19;;;24.78;39.97
10712;BME280;5407;51.234;6.804;2023-03-24T14:01:15;99820.22;;;24.79;40.21